createdAt,value
2017-11-09T00:00:32.802Z,49.60
2017-11-09T00:03:01.074Z,46.87
2017-11-09T00:05:35.159Z,49.47
2017-11-09T00:08:02.740Z,47.70
2017-11-09T00:10:31.091Z,48.83
2017-11-09T00:12:59.149Z,52.57
2017-11-09T00:15:26.768Z,49.40
2017-11-09T00:17:54.279Z,45.33
2017-11-09T00:20:21.783Z,49.13
2017-11-09T00:22:49.293Z,47.30
2017-11-09T00:25:16.798Z,46.93
2017-11-09T00:27:44.291Z,48.07
2017-11-09T00:30:11.912Z,52.67
2017-11-09T00:32:40.290Z,49.37
2017-11-09T00:35:08.574Z,49.87
2017-11-09T00:37:36.061Z,52.60
2017-11-09T00:40:03.555Z,52.90
2017-11-09T00:42:31.080Z,52.17
2017-11-09T00:44:58.573Z,49.10
2017-11-09T00:47:26.085Z,52.00
2017-11-09T00:49:53.586Z,50.63
2017-11-09T00:52:21.090Z,51.90
2017-11-09T00:54:48.597Z,52.63
2017-11-09T00:57:16.098Z,51.60
2017-11-09T00:59:43.588Z,50.97
2017-11-09T01:02:11.115Z,49.20
2017-11-09T01:04:38.681Z,52.10
2017-11-09T01:07:06.181Z,47.43
2017-11-09T01:09:33.664Z,53.77
2017-11-09T01:12:01.943Z,53.97
2017-11-09T01:14:30.242Z,52.93
2017-11-09T01:16:57.788Z,49.23
2017-11-09T01:19:26.077Z,55.17
2017-11-09T01:21:53.631Z,51.37
2017-11-09T01:24:21.159Z,53.30
2017-11-09T01:26:48.735Z,55.67
2017-11-09T01:29:17.005Z,53.97
2017-11-09T01:31:45.305Z,54.53
2017-11-09T01:34:12.805Z,53.07
2017-11-09T01:36:40.298Z,49.10
2017-11-09T01:39:08.591Z,55.73
2017-11-09T01:41:36.876Z,57.00
2017-11-09T01:44:04.437Z,54.50
2017-11-09T01:46:31.951Z,57.77
2017-11-09T01:48:59.481Z,56.77
2017-11-09T01:51:26.984Z,53.37
2017-11-09T01:53:55.266Z,56.10
2017-11-09T01:56:22.774Z,59.07
2017-11-09T01:58:50.394Z,53.27
2017-11-09T02:01:19.458Z,57.83
2017-11-09T02:03:47.058Z,57.40
2017-11-09T02:06:14.560Z,54.97
2017-11-09T02:08:42.050Z,56.43
2017-11-09T02:11:09.548Z,57.87
2017-11-09T02:13:37.093Z,54.20
2017-11-09T02:16:04.598Z,56.80
2017-11-09T02:18:32.104Z,59.57
2017-11-09T02:21:00.369Z,55.03
2017-11-09T02:23:28.640Z,52.23
2017-11-09T02:25:56.921Z,59.80
2017-11-09T02:28:24.491Z,56.63
2017-11-09T02:30:51.983Z,61.73
2017-11-09T02:33:19.506Z,55.40
2017-11-09T02:35:47.113Z,57.03
2017-11-09T02:38:14.639Z,54.53
2017-11-09T02:40:42.169Z,53.43
2017-11-09T02:43:10.462Z,53.13
2017-11-09T02:45:38.725Z,54.50
2017-11-09T02:48:07.012Z,55.07
2017-11-09T02:50:34.526Z,54.57
2017-11-09T02:53:02.035Z,54.10
2017-11-09T02:55:29.554Z,56.07
2017-11-09T02:57:57.050Z,51.13
2017-11-09T03:00:24.544Z,56.23
2017-11-09T03:02:52.065Z,58.00
2017-11-09T03:05:19.817Z,54.70
2017-11-09T03:07:47.387Z,57.80
2017-11-09T03:10:15.201Z,51.37
2017-11-09T03:12:42.805Z,57.00
2017-11-09T03:15:11.093Z,57.20
2017-11-09T03:17:38.667Z,57.60
2017-11-09T03:20:06.209Z,56.43
2017-11-09T03:22:34.463Z,54.27
2017-11-09T03:25:02.785Z,57.33
2017-11-09T03:27:30.333Z,53.13
2017-11-09T03:29:57.893Z,55.20
2017-11-09T03:32:25.401Z,49.60
2017-11-09T03:34:52.909Z,51.47
2017-11-09T03:37:20.432Z,51.40
2017-11-09T03:39:48.751Z,49.57
2017-11-09T03:42:16.269Z,50.07
2017-11-09T03:44:43.850Z,50.00
2017-11-09T03:47:11.434Z,51.73
2017-11-09T03:49:38.937Z,50.77
2017-11-09T03:52:07.318Z,53.33
2017-11-09T03:54:34.902Z,51.30
2017-11-09T03:57:03.181Z,50.97
2017-11-09T03:59:30.753Z,52.43
2017-11-09T04:01:58.262Z,50.67
2017-11-09T04:04:25.760Z,51.20
2017-11-09T04:06:54.037Z,49.23
2017-11-09T04:09:21.532Z,48.50
2017-11-09T04:11:49.027Z,49.20
2017-11-09T04:14:16.554Z,53.33
2017-11-09T04:16:44.075Z,56.80
2017-11-09T04:19:11.591Z,53.17
2017-11-09T04:21:39.095Z,46.83
2017-11-09T04:24:06.586Z,53.83
2017-11-09T04:26:34.109Z,52.77
2017-11-09T04:29:01.622Z,52.80
2017-11-09T04:31:29.218Z,49.87
2017-11-09T04:33:57.474Z,54.33
2017-11-09T04:36:24.974Z,48.80
2017-11-09T04:38:52.511Z,52.67
2017-11-09T04:41:20.036Z,52.40
2017-11-09T04:43:47.623Z,52.27
2017-11-09T04:46:15.125Z,50.47
2017-11-09T04:48:42.614Z,51.03
2017-11-09T04:51:10.210Z,52.80
2017-11-09T04:53:37.697Z,51.77
2017-11-09T04:56:05.204Z,54.43
2017-11-09T04:58:33.514Z,52.87
2017-11-09T05:01:01.083Z,50.73
2017-11-09T05:03:28.613Z,52.60
2017-11-09T05:05:56.681Z,54.50
2017-11-09T05:08:24.960Z,54.90
2017-11-09T05:10:53.275Z,47.83
2017-11-09T05:13:20.766Z,51.70
2017-11-09T05:15:48.368Z,51.83
2017-11-09T05:18:15.917Z,53.17
2017-11-09T05:20:44.199Z,53.40
2017-11-09T05:23:11.718Z,55.77
2017-11-09T05:25:39.223Z,55.23
2017-11-09T05:28:06.732Z,52.97
2017-11-09T05:30:34.258Z,53.77
2017-11-09T05:33:01.783Z,50.63
2017-11-09T05:35:29.295Z,51.97
2017-11-09T05:37:56.798Z,53.00
2017-11-09T05:40:25.069Z,51.10
2017-11-09T05:42:53.343Z,48.03
2017-11-09T05:45:21.618Z,49.87
2017-11-09T05:47:49.878Z,52.13
2017-11-09T05:50:17.474Z,49.43
2017-11-09T05:52:44.986Z,51.77
2017-11-09T05:55:12.505Z,50.47
2017-11-09T05:57:40.045Z,54.80
2017-11-09T06:00:07.562Z,51.87
2017-11-09T06:02:35.065Z,51.30
2017-11-09T06:05:02.718Z,53.93
2017-11-09T06:07:30.234Z,50.53
2017-11-09T06:09:57.785Z,53.20
2017-11-09T06:12:25.285Z,55.40
2017-11-09T06:14:53.548Z,52.20
2017-11-09T06:17:21.054Z,52.97
2017-11-09T06:19:48.619Z,50.70
2017-11-09T06:22:16.152Z,51.17
2017-11-09T06:24:43.791Z,50.77
2017-11-09T06:27:12.059Z,54.80
2017-11-09T06:29:39.556Z,61.20
2017-11-09T06:32:07.163Z,51.07
2017-11-09T06:34:34.669Z,58.47
2017-11-09T06:37:02.171Z,51.47
2017-11-09T06:39:30.649Z,48.63
2017-11-09T06:41:58.155Z,49.23
2017-11-09T06:44:26.426Z,50.47
2017-11-09T06:46:54.805Z,45.03
2017-11-09T06:49:23.079Z,51.87
2017-11-09T06:51:51.353Z,46.83
2017-11-09T06:54:19.752Z,51.67
2017-11-09T06:56:47.247Z,53.13
2017-11-09T06:59:14.877Z,52.40
2017-11-09T07:01:42.426Z,46.20
2017-11-09T07:04:09.965Z,44.57
2017-11-09T07:06:38.240Z,49.60
2017-11-09T07:09:06.519Z,46.63
2017-11-09T07:11:34.809Z,51.90
2017-11-09T07:14:02.328Z,51.07
2017-11-09T07:16:29.835Z,52.70
2017-11-09T07:18:57.418Z,50.73
2017-11-09T07:21:24.944Z,49.10
2017-11-09T07:23:52.452Z,51.20
2017-11-09T07:26:20.084Z,48.23
2017-11-09T07:28:47.606Z,48.03
2017-11-09T07:31:15.901Z,46.57
2017-11-09T07:33:44.185Z,49.83
2017-11-09T07:36:11.737Z,52.47
2017-11-09T07:38:40.005Z,49.17
2017-11-09T07:41:08.413Z,49.47
2017-11-09T07:43:35.926Z,49.07
2017-11-09T07:46:04.194Z,47.77
2017-11-09T07:48:31.718Z,49.73
2017-11-09T07:50:59.214Z,55.47
2017-11-09T07:53:26.701Z,49.30
2017-11-09T07:55:55.091Z,48.60
2017-11-09T07:58:22.618Z,46.20
2017-11-09T08:00:50.927Z,48.10
2017-11-09T08:03:18.496Z,46.73
2017-11-09T08:05:46.140Z,54.60
2017-11-09T08:08:13.654Z,44.33
2017-11-09T08:10:41.282Z,46.93
2017-11-09T08:13:08.784Z,48.80
2017-11-09T08:15:37.782Z,53.77
2017-11-09T08:18:05.264Z,48.50
2017-11-09T08:20:33.548Z,50.40
2017-11-09T08:23:01.099Z,48.93
2017-11-09T08:25:34.474Z,51.73
2017-11-09T08:28:05.513Z,52.63
2017-11-09T08:30:33.348Z,48.50
2017-11-09T08:33:04.765Z,51.30
2017-11-09T08:35:32.260Z,47.63
2017-11-09T08:37:59.800Z,46.17
2017-11-09T08:40:27.310Z,46.83
2017-11-09T08:42:55.583Z,45.30
2017-11-09T08:45:23.171Z,46.37
2017-11-09T08:47:50.689Z,45.27
2017-11-09T08:50:18.188Z,55.70
2017-11-09T08:52:45.732Z,54.33
2017-11-09T08:55:13.238Z,53.27
2017-11-09T08:57:40.762Z,50.77
2017-11-09T09:00:08.285Z,47.73
2017-11-09T09:02:35.813Z,47.77
2017-11-09T09:05:03.310Z,47.53
2017-11-09T09:07:31.579Z,47.77
2017-11-09T09:09:59.881Z,50.57
2017-11-09T09:12:28.170Z,46.37
2017-11-09T09:14:55.685Z,47.60
2017-11-09T09:17:23.239Z,44.57
2017-11-09T09:19:50.764Z,44.00
2017-11-09T09:22:20.872Z,46.07
2017-11-09T09:24:48.398Z,49.07
2017-11-09T09:27:18.585Z,43.10
2017-11-09T09:29:50.561Z,45.73
2017-11-09T09:32:28.017Z,45.43
2017-11-09T09:35:01.193Z,46.07
2017-11-09T09:37:33.073Z,46.07
2017-11-09T09:40:05.371Z,46.33
2017-11-09T09:42:32.873Z,48.73
2017-11-09T09:45:00.361Z,46.50
2017-11-09T09:47:27.876Z,48.63
2017-11-09T09:49:56.140Z,50.30
2017-11-09T09:52:23.721Z,44.93
2017-11-09T09:54:51.229Z,46.37
2017-11-09T09:57:18.737Z,48.13
2017-11-09T09:59:46.251Z,49.90
2017-11-09T10:02:13.753Z,48.17
2017-11-09T10:04:42.023Z,50.33
2017-11-09T10:07:09.540Z,44.27
2017-11-09T10:09:37.041Z,45.87
2017-11-09T10:12:04.568Z,42.60
2017-11-09T10:14:32.162Z,45.00
2017-11-09T10:16:59.753Z,48.03
2017-11-09T10:19:27.277Z,47.63
2017-11-09T10:21:54.777Z,52.53
2017-11-09T10:24:22.288Z,49.47
2017-11-09T10:26:50.559Z,52.77
2017-11-09T10:29:18.059Z,50.80
2017-11-09T10:31:45.610Z,56.73
2017-11-09T10:34:13.096Z,57.60
2017-11-09T10:36:40.753Z,51.80
2017-11-09T10:39:08.301Z,58.77
2017-11-09T10:41:35.809Z,58.07
2017-11-09T10:44:04.089Z,63.77
2017-11-09T10:46:32.354Z,61.77
2017-11-09T10:48:59.880Z,60.60
2017-11-09T10:51:27.414Z,59.50
2017-11-09T10:53:54.916Z,58.10
2017-11-09T10:56:22.430Z,61.10
2017-11-09T10:58:49.953Z,58.80
2017-11-09T11:01:17.534Z,63.27
2017-11-09T11:03:45.110Z,56.97
2017-11-09T11:06:12.618Z,65.63
2017-11-09T11:08:40.134Z,63.07
2017-11-09T11:11:07.651Z,56.13
2017-11-09T11:13:35.973Z,60.00
2017-11-09T11:16:03.471Z,60.10
2017-11-09T11:18:30.979Z,54.83
2017-11-09T11:20:58.520Z,56.70
2017-11-09T11:23:26.810Z,59.10
2017-11-09T11:25:54.365Z,59.33
2017-11-09T11:28:21.869Z,59.63
2017-11-09T11:30:49.467Z,54.97
2017-11-09T11:33:17.754Z,56.73
2017-11-09T11:35:45.279Z,56.90
2017-11-09T11:38:12.863Z,59.73
2017-11-09T11:40:41.148Z,59.77
2017-11-09T11:43:08.704Z,61.37
2017-11-09T11:45:36.985Z,60.20
2017-11-09T11:48:05.262Z,64.20
2017-11-09T11:50:32.820Z,61.33
2017-11-09T11:53:00.306Z,57.57
2017-11-09T11:55:27.942Z,64.97
2017-11-09T11:57:55.445Z,59.30
2017-11-09T12:00:22.959Z,62.70
2017-11-09T12:02:54.520Z,63.00
2017-11-09T12:05:22.115Z,63.30
2017-11-09T12:07:49.677Z,60.77
2017-11-09T12:10:17.413Z,59.57
2017-11-09T12:12:44.932Z,55.93
2017-11-09T12:15:13.209Z,57.30
2017-11-09T12:17:41.505Z,58.70
2017-11-09T12:20:08.994Z,61.43
2017-11-09T12:22:36.527Z,62.33
2017-11-09T12:25:04.045Z,57.63
2017-11-09T12:27:31.646Z,61.20
2017-11-09T12:29:59.198Z,61.37
2017-11-09T12:32:26.753Z,64.40
2017-11-09T12:34:55.021Z,64.13
2017-11-09T12:37:23.276Z,61.67
2017-11-09T12:39:51.183Z,61.97
2017-11-09T12:42:18.682Z,58.30
2017-11-09T12:44:46.197Z,59.23
2017-11-09T12:47:13.706Z,58.80
2017-11-09T12:49:42.002Z,58.33
2017-11-09T12:52:09.529Z,57.73
2017-11-09T12:54:37.021Z,53.67
2017-11-09T12:57:05.303Z,56.93
2017-11-09T12:59:33.574Z,57.70
2017-11-09T13:02:01.855Z,61.87
2017-11-09T13:04:30.142Z,59.67
2017-11-09T13:06:58.401Z,60.53
2017-11-09T13:09:26.695Z,64.40
2017-11-09T13:11:55.008Z,59.50
2017-11-09T13:14:22.527Z,55.87
2017-11-09T13:16:51.639Z,55.80
2017-11-09T13:19:23.107Z,61.13
2017-11-09T13:21:50.637Z,63.43
2017-11-09T13:24:18.983Z,62.50
2017-11-09T13:26:46.477Z,56.83
2017-11-09T13:29:14.777Z,62.17
2017-11-09T13:31:42.297Z,65.47
2017-11-09T13:34:10.577Z,64.80
2017-11-09T13:36:38.922Z,62.43
2017-11-09T13:39:06.409Z,62.60
2017-11-09T13:41:34.766Z,61.47
2017-11-09T13:44:02.266Z,67.20
2017-11-09T13:46:29.754Z,84.23
2017-11-09T13:48:57.270Z,68.30
2017-11-09T13:51:25.544Z,61.77
2017-11-09T13:53:53.838Z,59.03
2017-11-09T13:56:21.347Z,71.23
2017-11-09T13:58:48.862Z,71.60
2017-11-09T14:01:16.366Z,68.40
2017-11-09T14:03:43.874Z,71.83
2017-11-09T14:06:11.385Z,75.27
2017-11-09T14:08:38.881Z,73.80
2017-11-09T14:11:08.148Z,78.10
2017-11-09T14:13:35.642Z,74.57
2017-11-09T14:16:03.143Z,69.23
2017-11-09T14:18:30.677Z,73.60
2017-11-09T14:20:58.196Z,78.60
2017-11-09T14:23:26.474Z,76.17
2017-11-09T14:25:54.750Z,73.47
2017-11-09T14:28:23.025Z,84.10
2017-11-09T14:30:51.317Z,87.37
2017-11-09T14:33:18.819Z,83.33
2017-11-09T14:35:46.619Z,81.57
2017-11-09T14:38:15.679Z,82.53
2017-11-09T14:40:43.183Z,78.77
2017-11-09T14:43:10.784Z,74.60
2017-11-09T14:45:38.299Z,83.93
2017-11-09T14:48:06.633Z,82.00
2017-11-09T14:50:34.137Z,78.93
2017-11-09T14:53:02.416Z,76.87
2017-11-09T14:55:30.710Z,78.17
2017-11-09T14:57:58.208Z,81.60
2017-11-09T15:00:25.738Z,81.87
2017-11-09T15:02:53.272Z,81.70
2017-11-09T15:05:21.569Z,73.20
2017-11-09T15:07:49.117Z,73.93
2017-11-09T15:10:16.603Z,81.60
2017-11-09T15:12:44.125Z,77.43
2017-11-09T15:15:11.637Z,74.10
2017-11-09T15:17:39.150Z,84.80
2017-11-09T15:20:06.661Z,86.00
2017-11-09T15:22:34.161Z,82.10
2017-11-09T15:25:01.732Z,94.43
2017-11-09T15:27:29.260Z,80.50
2017-11-09T15:29:57.527Z,89.77
2017-11-09T15:32:31.651Z,83.43
2017-11-09T15:34:59.912Z,89.20
2017-11-09T15:37:27.728Z,84.90
2017-11-09T15:39:55.268Z,79.03
2017-11-09T15:42:22.798Z,84.97
2017-11-09T15:44:51.099Z,82.87
2017-11-09T15:47:18.602Z,80.53
2017-11-09T15:49:46.110Z,83.10
2017-11-09T15:52:14.377Z,84.23
2017-11-09T15:54:42.640Z,86.57
2017-11-09T15:57:10.932Z,84.27
2017-11-09T15:59:39.201Z,82.07
2017-11-09T16:02:07.472Z,90.13
2017-11-09T16:04:35.755Z,87.27
2017-11-09T16:07:07.192Z,87.47
2017-11-09T16:09:34.717Z,88.07
2017-11-09T16:12:02.223Z,90.17
2017-11-09T16:14:30.733Z,90.40
2017-11-09T16:16:58.243Z,93.60
2017-11-09T16:19:25.744Z,88.00
2017-11-09T16:21:53.373Z,90.93
2017-11-09T16:24:20.868Z,93.53
2017-11-09T16:26:48.380Z,93.80
2017-11-09T16:29:15.886Z,98.03
2017-11-09T16:31:43.552Z,100.10
2017-11-09T16:34:11.113Z,98.87
2017-11-09T16:36:38.675Z,105.30
2017-11-09T16:39:06.227Z,96.03
2017-11-09T16:41:33.730Z,97.60
2017-11-09T16:44:01.297Z,98.73
2017-11-09T16:46:29.635Z,100.30
2017-11-09T16:48:57.121Z,97.27
2017-11-09T16:51:24.672Z,100.63
2017-11-09T16:53:52.177Z,95.30
2017-11-09T16:56:21.232Z,87.30
2017-11-09T16:58:51.638Z,102.27
2017-11-09T17:01:19.163Z,101.63
2017-11-09T17:03:46.662Z,103.70
2017-11-09T17:06:14.183Z,132.60
2017-11-09T17:08:41.693Z,98.37
2017-11-09T17:11:10.109Z,98.83
2017-11-09T17:13:37.613Z,95.80
2017-11-09T17:16:05.101Z,105.80
2017-11-09T17:18:33.558Z,96.43
2017-11-09T17:21:01.100Z,89.63
2017-11-09T17:23:28.623Z,96.67
2017-11-09T17:25:56.130Z,100.40
2017-11-09T17:28:23.636Z,98.07
2017-11-09T17:30:51.918Z,88.43
2017-11-09T17:33:20.201Z,89.40
2017-11-09T17:35:47.856Z,94.73
2017-11-09T17:38:16.301Z,87.83
2017-11-09T17:40:43.876Z,90.50
2017-11-09T17:43:11.394Z,97.43
2017-11-09T17:45:38.884Z,89.50
2017-11-09T17:48:06.407Z,98.07
2017-11-09T17:50:33.954Z,93.30
2017-11-09T17:53:01.525Z,93.40
2017-11-09T17:55:29.090Z,92.87
2017-11-09T17:57:56.647Z,90.67
2017-11-09T18:00:24.201Z,89.37
2017-11-09T18:02:51.769Z,94.07
2017-11-09T18:05:19.289Z,97.50
2017-11-09T18:07:47.614Z,98.43
2017-11-09T18:10:15.934Z,92.80
2017-11-09T18:12:43.472Z,97.63
2017-11-09T18:15:10.983Z,100.43
2017-11-09T18:17:38.497Z,95.67
2017-11-09T18:20:06.054Z,92.97
2017-11-09T18:22:36.538Z,94.87
2017-11-09T18:25:04.037Z,92.97
2017-11-09T18:27:31.559Z,96.30
2017-11-09T18:29:59.070Z,93.20
2017-11-09T18:32:27.374Z,88.83
2017-11-09T18:34:54.905Z,93.13
2017-11-09T18:37:23.231Z,106.47
2017-11-09T18:39:50.875Z,90.23
2017-11-09T18:42:18.395Z,92.53
2017-11-09T18:44:46.664Z,99.27
2017-11-09T18:47:14.168Z,99.00
2017-11-09T18:49:41.761Z,97.43
2017-11-09T18:52:09.366Z,102.67
2017-11-09T18:54:37.670Z,96.43
2017-11-09T18:57:05.188Z,104.17
2017-11-09T18:59:33.473Z,105.20
2017-11-09T19:02:01.742Z,93.77
2017-11-09T19:04:30.009Z,112.17
2017-11-09T19:06:58.303Z,110.50
2017-11-09T19:09:26.578Z,108.83
2017-11-09T19:11:54.838Z,106.53
2017-11-09T19:14:22.345Z,108.43
2017-11-09T19:16:49.849Z,101.33
2017-11-09T19:19:17.363Z,110.00
2017-11-09T19:21:44.992Z,109.53
2017-11-09T19:24:13.245Z,107.17
2017-11-09T19:26:40.757Z,97.70
2017-11-09T19:29:08.257Z,102.70
2017-11-09T19:31:35.762Z,107.07
2017-11-09T19:34:03.266Z,96.93
2017-11-09T19:36:30.761Z,103.77
2017-11-09T19:38:59.037Z,106.20
2017-11-09T19:41:26.563Z,105.77
2017-11-09T19:43:54.075Z,100.73
2017-11-09T19:46:21.582Z,108.70
2017-11-09T19:48:49.187Z,108.23
2017-11-09T19:51:16.697Z,113.83
2017-11-09T19:53:44.226Z,106.80
2017-11-09T19:56:12.523Z,110.10
2017-11-09T19:58:40.025Z,107.33
2017-11-09T20:01:07.536Z,110.47
2017-11-09T20:03:35.142Z,115.03
2017-11-09T20:06:02.649Z,107.73
2017-11-09T20:08:30.169Z,111.30
2017-11-09T20:10:57.744Z,115.47
2017-11-09T20:13:25.261Z,107.90
2017-11-09T20:15:53.541Z,126.07
2017-11-09T20:18:21.819Z,113.43
2017-11-09T20:20:50.132Z,118.03
2017-11-09T20:23:17.676Z,121.67
2017-11-09T20:25:45.190Z,114.90
2017-11-09T20:28:12.732Z,125.23
2017-11-09T20:30:40.254Z,122.73
2017-11-09T20:33:07.796Z,125.97
2017-11-09T20:35:36.177Z,133.53
2017-11-09T20:38:04.433Z,126.03
2017-11-09T20:40:31.933Z,123.77
2017-11-09T20:42:59.448Z,122.17
2017-11-09T20:45:26.947Z,119.87
2017-11-09T20:47:54.477Z,120.90
2017-11-09T20:50:22.741Z,124.67
2017-11-09T20:52:51.077Z,136.43
2017-11-09T20:55:18.599Z,120.57
2017-11-09T20:57:46.862Z,122.63
2017-11-09T21:00:15.210Z,136.57
2017-11-09T21:02:42.697Z,123.43
2017-11-09T21:05:10.963Z,119.70
2017-11-09T21:07:38.477Z,122.20
2017-11-09T21:10:06.026Z,132.27
2017-11-09T21:12:33.559Z,138.70
2017-11-09T21:15:01.913Z,135.37
2017-11-09T21:17:29.423Z,123.27
2017-11-09T21:19:56.970Z,128.10
2017-11-09T21:22:24.461Z,118.70
2017-11-09T21:24:52.045Z,120.63
2017-11-09T21:27:19.571Z,115.87
2017-11-09T21:29:47.090Z,132.47
2017-11-09T21:32:15.400Z,119.03
2017-11-09T21:34:42.904Z,117.73
2017-11-09T21:37:10.456Z,119.80
2017-11-09T21:39:38.729Z,123.27
2017-11-09T21:42:06.266Z,127.50
2017-11-09T21:44:33.827Z,106.83
2017-11-09T21:47:01.332Z,125.83
2017-11-09T21:49:29.620Z,118.20
2017-11-09T21:51:57.885Z,117.33
2017-11-09T21:54:26.137Z,115.07
2017-11-09T21:56:54.458Z,114.10
2017-11-09T21:59:21.962Z,128.43
2017-11-09T22:01:49.474Z,125.90
2017-11-09T22:04:17.025Z,126.10
2017-11-09T22:06:44.523Z,118.13
2017-11-09T22:09:12.036Z,111.10
2017-11-09T22:11:40.309Z,112.73
2017-11-09T22:14:08.618Z,115.83
2017-11-09T22:16:36.108Z,115.87
2017-11-09T22:19:03.614Z,112.30
2017-11-09T22:21:31.122Z,106.67
2017-11-09T22:23:58.619Z,116.03
2017-11-09T22:26:27.022Z,112.17
2017-11-09T22:28:54.546Z,105.07
2017-11-09T22:31:22.062Z,106.13
2017-11-09T22:33:49.600Z,115.60
2017-11-09T22:36:17.098Z,100.27
2017-11-09T22:38:44.648Z,111.23
2017-11-09T22:41:12.209Z,107.70
2017-11-09T22:43:39.720Z,101.93
2017-11-09T22:46:07.222Z,97.67
2017-11-09T22:48:35.263Z,102.50
2017-11-09T22:51:02.922Z,99.73
2017-11-09T22:53:30.457Z,96.80
2017-11-09T22:55:58.714Z,93.40
2017-11-09T22:58:27.004Z,95.50
2017-11-09T23:00:55.269Z,93.93
2017-11-09T23:03:22.777Z,83.33
2017-11-09T23:05:50.288Z,89.30
2017-11-09T23:08:18.607Z,93.83
2017-11-09T23:10:46.365Z,84.03
2017-11-09T23:13:14.739Z,90.93
2017-11-09T23:15:42.316Z,89.57
2017-11-09T23:18:09.884Z,94.87
2017-11-09T23:20:37.370Z,87.23
2017-11-09T23:23:04.878Z,90.87
2017-11-09T23:25:32.394Z,83.63
2017-11-09T23:28:02.880Z,87.53
2017-11-09T23:30:30.630Z,80.87
2017-11-09T23:32:58.209Z,83.77
2017-11-09T23:35:25.773Z,80.13
2017-11-09T23:37:53.611Z,77.30
2017-11-09T23:40:21.203Z,75.10
2017-11-09T23:42:48.777Z,78.20
2017-11-09T23:45:16.282Z,83.40
2017-11-09T23:47:43.804Z,72.70
2017-11-09T23:50:11.499Z,79.43
2017-11-09T23:52:39.105Z,79.23
2017-11-09T23:55:06.646Z,76.77
2017-11-09T23:57:34.273Z,69.63
